createdAt,value
2023-01-26T00:00:26.856Z,100.00
2023-01-26T00:03:29.859Z,100.00
2023-01-26T00:06:32.464Z,100.00
2023-01-26T00:09:35.251Z,100.00
2023-01-26T00:12:38.116Z,100.00
2023-01-26T00:15:42.492Z,100.00
2023-01-26T00:18:45.336Z,100.00
2023-01-26T00:21:48.199Z,100.00
2023-01-26T00:24:50.858Z,100.00
2023-01-26T00:27:53.744Z,100.00
2023-01-26T00:31:11.734Z,100.00
2023-01-26T00:34:14.596Z,100.00
2023-01-26T00:37:17.975Z,100.00
2023-01-26T00:40:23.509Z,100.00
2023-01-26T00:43:27.302Z,100.00
2023-01-26T00:46:30.245Z,100.00
2023-01-26T00:49:33.103Z,100.00
2023-01-26T00:52:36.043Z,100.00
2023-01-26T00:55:38.987Z,100.00
2023-01-26T00:58:43.111Z,100.00
2023-01-26T01:01:47.923Z,100.00
2023-01-26T01:04:51.102Z,100.00
2023-01-26T01:07:55.244Z,100.00
2023-01-26T01:11:06.842Z,100.00
2023-01-26T01:14:10.123Z,100.00
2023-01-26T01:17:13.542Z,100.00
2023-01-26T01:20:18.904Z,100.00
2023-01-26T01:23:22.408Z,100.00
2023-01-26T01:26:24.950Z,100.00
2023-01-26T01:29:27.965Z,100.00
2023-01-26T01:32:31.011Z,100.00
2023-01-26T01:35:35.848Z,100.00
2023-01-26T01:38:38.760Z,100.00
2023-01-26T01:41:41.738Z,100.00
2023-01-26T01:45:06.805Z,100.00
2023-01-26T01:48:19.529Z,100.00
2023-01-26T01:51:43.824Z,100.00
2023-01-26T01:54:52.460Z,100.00
2023-01-26T01:57:58.925Z,100.00
2023-01-26T02:01:03.739Z,100.00
2023-01-26T02:04:07.969Z,100.00
2023-01-26T02:07:14.947Z,100.00
2023-01-26T02:10:20.649Z,100.00
2023-01-26T02:13:24.706Z,100.00
2023-01-26T02:16:27.627Z,100.00
2023-01-26T02:19:59.532Z,100.00
2023-01-26T02:23:41.395Z,100.00
2023-01-26T02:26:44.265Z,100.00
2023-01-26T02:29:47.930Z,100.00
2023-01-26T02:32:50.606Z,100.00
2023-01-26T02:35:53.688Z,100.00
2023-01-26T02:38:56.164Z,100.00
2023-01-26T02:42:17.968Z,100.00
2023-01-26T02:45:21.206Z,100.00
2023-01-26T02:48:43.962Z,100.00
2023-01-26T02:51:46.536Z,100.00
2023-01-26T02:55:08.285Z,100.00
2023-01-26T02:58:11.255Z,100.00
2023-01-26T03:01:14.557Z,100.00
2023-01-26T03:04:22.452Z,100.00
2023-01-26T03:07:25.545Z,100.00
2023-01-26T03:10:28.384Z,100.00
2023-01-26T03:13:31.356Z,100.00
2023-01-26T03:16:34.155Z,100.00
2023-01-26T03:19:56.822Z,100.00
2023-01-26T03:23:18.461Z,100.00
2023-01-26T03:26:40.483Z,100.00
2023-01-26T03:29:43.419Z,100.00
2023-01-26T03:32:46.605Z,100.00
2023-01-26T03:35:53.239Z,100.00
2023-01-26T03:38:56.956Z,100.00
2023-01-26T03:42:18.907Z,100.00
2023-01-26T03:45:41.427Z,100.00
2023-01-26T03:49:02.388Z,100.00
2023-01-26T03:52:24.286Z,100.00
2023-01-26T03:55:45.179Z,100.00
2023-01-26T03:58:53.154Z,100.00
2023-01-26T04:02:15.349Z,100.00
2023-01-26T04:05:36.721Z,100.00
2023-01-26T04:08:39.367Z,100.00
2023-01-26T04:11:42.300Z,100.00
2023-01-26T04:15:03.547Z,100.00
2023-01-26T04:18:26.992Z,100.00
2023-01-26T04:21:30.123Z,100.00
2023-01-26T04:24:33.220Z,100.00
2023-01-26T04:27:36.029Z,100.00
2023-01-26T04:30:40.482Z,100.00
2023-01-26T04:33:43.763Z,100.00
2023-01-26T04:36:46.766Z,100.00
2023-01-26T04:39:49.617Z,100.00
2023-01-26T04:42:52.868Z,100.00
2023-01-26T04:46:03.397Z,100.00
2023-01-26T04:49:06.604Z,100.00
2023-01-26T04:52:09.698Z,100.00
2023-01-26T04:55:12.625Z,100.00
2023-01-26T04:58:16.528Z,100.00
2023-01-26T05:01:20.840Z,100.00
2023-01-26T05:04:24.203Z,100.00
2023-01-26T05:07:27.256Z,100.00
2023-01-26T05:10:30.589Z,100.00
2023-01-26T05:13:35.526Z,100.00
2023-01-26T05:16:38.289Z,100.00
2023-01-26T05:19:41.517Z,100.00
2023-01-26T05:22:47.328Z,100.00
2023-01-26T05:25:54.154Z,100.00
2023-01-26T05:28:56.964Z,100.00
2023-01-26T05:31:59.967Z,100.00
2023-01-26T05:35:04.215Z,100.00
2023-01-26T05:38:07.993Z,100.00
2023-01-26T05:41:11.484Z,100.00
2023-01-26T05:44:15.414Z,100.00
2023-01-26T05:47:18.458Z,100.00
2023-01-26T05:50:22.011Z,100.00
2023-01-26T05:53:39.556Z,100.00
2023-01-26T05:56:42.640Z,100.00
2023-01-26T05:59:46.571Z,100.00
2023-01-26T06:02:49.796Z,100.00
2023-01-26T06:05:54.969Z,100.00
2023-01-26T06:08:58.781Z,100.00
2023-01-26T06:12:07.718Z,100.00
2023-01-26T06:15:12.706Z,100.00
2023-01-26T06:18:15.828Z,100.00
2023-01-26T06:21:21.053Z,100.00
2023-01-26T06:24:24.795Z,100.00
2023-01-26T06:27:27.920Z,100.00
2023-01-26T06:30:38.692Z,100.00
2023-01-26T06:33:41.924Z,100.00
2023-01-26T06:36:45.117Z,100.00
2023-01-26T06:39:48.856Z,100.00
2023-01-26T06:42:52.088Z,100.00
2023-01-26T06:45:59.470Z,100.00
2023-01-26T06:49:03.760Z,100.00
2023-01-26T06:52:23.278Z,100.00
2023-01-26T06:55:37.308Z,100.00
2023-01-26T06:58:43.325Z,100.00
2023-01-26T07:01:49.044Z,100.00
2023-01-26T07:04:51.974Z,100.00
2023-01-26T07:07:55.312Z,100.00
2023-01-26T07:10:59.405Z,100.00
2023-01-26T07:14:02.309Z,100.00
2023-01-26T07:17:05.033Z,100.00
2023-01-26T07:20:08.881Z,100.00
2023-01-26T07:23:15.161Z,100.00
2023-01-26T07:26:18.298Z,100.00
2023-01-26T07:29:21.017Z,100.00
2023-01-26T07:32:23.890Z,100.00
2023-01-26T07:35:26.440Z,100.00
2023-01-26T07:38:29.622Z,100.00
2023-01-26T07:41:32.789Z,100.00
2023-01-26T07:44:35.826Z,100.00
2023-01-26T07:47:38.610Z,100.00
2023-01-26T07:50:47.731Z,100.00
2023-01-26T07:53:50.410Z,100.00
2023-01-26T07:56:54.603Z,100.00
2023-01-26T07:59:57.353Z,100.00
2023-01-26T08:03:00.351Z,100.00
2023-01-26T08:06:04.225Z,100.00
2023-01-26T08:09:07.071Z,100.00
2023-01-26T08:12:10.003Z,100.00
2023-01-26T08:15:12.728Z,100.00
2023-01-26T08:18:15.677Z,100.00
2023-01-26T08:21:19.801Z,100.00
2023-01-26T08:24:22.824Z,100.00
2023-01-26T08:27:25.461Z,100.00
2023-01-26T08:30:28.469Z,100.00
2023-01-26T08:33:32.263Z,100.00
2023-01-26T08:36:35.182Z,100.00
2023-01-26T08:39:38.050Z,100.00
2023-01-26T08:42:41.127Z,100.00
2023-01-26T08:45:47.802Z,100.00
2023-01-26T08:48:50.791Z,100.00
2023-01-26T08:51:53.440Z,100.00
2023-01-26T08:54:56.463Z,100.00
2023-01-26T08:57:59.180Z,100.00
2023-01-26T09:01:12.079Z,100.00
2023-01-26T09:04:14.997Z,100.00
2023-01-26T09:07:17.908Z,100.00
2023-01-26T09:10:20.663Z,99.30
2023-01-26T09:13:24.168Z,98.66
2023-01-26T09:16:27.991Z,98.63
2023-01-26T09:19:34.431Z,100.00
2023-01-26T09:22:37.221Z,100.00
2023-01-26T09:25:40.190Z,100.00
2023-01-26T09:28:42.752Z,100.00
2023-01-26T09:31:45.732Z,100.00
2023-01-26T09:34:48.396Z,100.00
2023-01-26T09:37:51.220Z,100.00
2023-01-26T09:41:32.708Z,99.83
2023-01-26T09:44:45.967Z,99.87
2023-01-26T09:48:03.378Z,100.00
2023-01-26T09:51:26.344Z,100.00
2023-01-26T09:54:43.816Z,100.00
2023-01-26T09:57:55.426Z,100.00
2023-01-26T10:01:02.458Z,98.92
2023-01-26T10:04:36.912Z,99.22
2023-01-26T10:07:39.647Z,100.00
2023-01-26T10:10:52.810Z,98.70
2023-01-26T10:14:15.738Z,97.36
2023-01-26T10:17:35.154Z,97.77
2023-01-26T10:20:43.360Z,99.50
2023-01-26T10:23:48.946Z,99.48
2023-01-26T10:26:53.655Z,100.00
2023-01-26T10:29:56.769Z,96.85
2023-01-26T10:33:00.812Z,97.61
2023-01-26T10:36:06.783Z,97.37
2023-01-26T10:39:11.707Z,96.94
2023-01-26T10:42:19.206Z,98.40
2023-01-26T10:45:33.313Z,98.20
2023-01-26T10:48:36.143Z,96.39
2023-01-26T10:52:05.118Z,96.79
2023-01-26T10:55:21.218Z,93.59
2023-01-26T10:58:45.756Z,94.13
2023-01-26T11:02:00.847Z,92.27
2023-01-26T11:05:09.342Z,91.08
2023-01-26T11:08:36.864Z,92.07
2023-01-26T11:11:39.964Z,91.65
2023-01-26T11:15:04.320Z,91.82
2023-01-26T11:18:19.153Z,91.13
2023-01-26T11:21:39.169Z,93.01
2023-01-26T11:25:08.668Z,92.99
2023-01-26T11:28:30.245Z,90.94
2023-01-26T11:31:59.476Z,91.31
2023-01-26T11:35:30.605Z,92.60
2023-01-26T11:38:39.516Z,91.43
2023-01-26T11:42:06.827Z,91.92
2023-01-26T11:45:33.507Z,95.95
2023-01-26T11:48:50.717Z,95.45
2023-01-26T11:52:16.490Z,96.97
2023-01-26T11:55:47.696Z,98.07
2023-01-26T11:59:01.450Z,98.87
2023-01-26T12:02:27.834Z,99.84
2023-01-26T12:05:43.497Z,100.00
2023-01-26T12:09:02.415Z,100.00
2023-01-26T12:12:14.533Z,99.60
2023-01-26T12:15:24.267Z,100.00
2023-01-26T12:18:48.904Z,100.00
2023-01-26T12:22:05.898Z,100.00
2023-01-26T12:25:49.319Z,100.00
2023-01-26T12:29:30.725Z,100.00
2023-01-26T12:32:34.009Z,100.00
2023-01-26T12:35:50.574Z,100.00
2023-01-26T12:39:02.407Z,100.00
2023-01-26T12:42:32.392Z,100.00
2023-01-26T12:45:41.287Z,99.65
2023-01-26T12:48:50.560Z,100.00
2023-01-26T12:52:01.059Z,100.00
2023-01-26T12:55:07.729Z,100.00
2023-01-26T12:58:17.870Z,100.00
2023-01-26T13:01:24.379Z,100.00
2023-01-26T13:04:27.645Z,100.00
2023-01-26T13:07:39.703Z,100.00
2023-01-26T13:10:46.290Z,100.00
2023-01-26T13:13:54.733Z,100.00
2023-01-26T13:17:19.134Z,100.00
2023-01-26T13:20:40.097Z,100.00
2023-01-26T13:23:46.396Z,100.00
2023-01-26T13:26:59.831Z,100.00
2023-01-26T13:30:24.467Z,100.00
2023-01-26T13:33:27.301Z,100.00
2023-01-26T13:36:35.107Z,100.00
2023-01-26T13:39:41.665Z,100.00
2023-01-26T13:42:56.781Z,100.00
2023-01-26T13:46:02.031Z,100.00
2023-01-26T13:49:05.843Z,100.00
2023-01-26T13:52:18.767Z,100.00
2023-01-26T13:55:29.541Z,100.00
2023-01-26T13:58:33.925Z,100.00
2023-01-26T14:01:45.184Z,100.00
2023-01-26T14:04:55.625Z,100.00
2023-01-26T14:07:59.662Z,100.00
2023-01-26T14:11:16.577Z,100.00
2023-01-26T14:14:28.112Z,100.00
2023-01-26T14:17:36.800Z,100.00
2023-01-26T14:20:41.010Z,100.00
2023-01-26T14:23:44.124Z,100.00
2023-01-26T14:26:48.625Z,100.00
2023-01-26T14:29:51.695Z,100.00
2023-01-26T14:33:07.847Z,100.00
2023-01-26T14:36:20.109Z,100.00
2023-01-26T14:39:22.972Z,100.00
2023-01-26T14:42:26.089Z,100.00
2023-01-26T14:45:32.564Z,100.00
2023-01-26T14:48:42.846Z,100.00
2023-01-26T14:51:47.270Z,100.00
2023-01-26T14:54:51.902Z,100.00
2023-01-26T14:57:55.968Z,100.00
2023-01-26T15:01:01.188Z,100.00
2023-01-26T15:04:15.357Z,100.00
2023-01-26T15:07:41.561Z,100.00
2023-01-26T15:10:55.489Z,100.00
2023-01-26T15:13:58.457Z,100.00
2023-01-26T15:17:01.253Z,100.00
2023-01-26T15:20:14.911Z,100.00
2023-01-26T15:23:27.734Z,100.00
2023-01-26T15:26:35.590Z,99.28
2023-01-26T15:29:38.277Z,100.00
2023-01-26T15:32:41.671Z,100.00
2023-01-26T15:35:57.629Z,100.00
2023-01-26T15:39:01.955Z,100.00
2023-01-26T15:42:15.923Z,100.00
2023-01-26T15:45:27.143Z,100.00
2023-01-26T15:48:31.870Z,100.00
2023-01-26T15:51:36.342Z,100.00
2023-01-26T15:54:39.022Z,100.00
2023-01-26T15:57:41.886Z,100.00
2023-01-26T16:00:44.690Z,100.00
2023-01-26T16:03:47.642Z,100.00
2023-01-26T16:06:50.211Z,100.00
2023-01-26T16:09:53.627Z,98.43
2023-01-26T16:12:56.412Z,99.85
2023-01-26T16:15:59.359Z,100.00
2023-01-26T16:19:02.059Z,100.00
2023-01-26T16:22:04.980Z,100.00
2023-01-26T16:25:25.307Z,97.13
2023-01-26T16:28:28.270Z,92.90
2023-01-26T16:31:33.665Z,93.77
2023-01-26T16:34:36.585Z,95.26
2023-01-26T16:37:41.154Z,93.10
2023-01-26T16:40:48.349Z,92.78
2023-01-26T16:43:51.081Z,94.47
2023-01-26T16:46:53.921Z,92.63
2023-01-26T16:49:56.521Z,89.91
2023-01-26T16:53:02.579Z,89.63
2023-01-26T16:56:09.871Z,86.26
2023-01-26T16:59:12.853Z,88.62
2023-01-26T17:02:26.162Z,86.56
2023-01-26T17:05:31.196Z,85.64
2023-01-26T17:08:34.327Z,86.15
2023-01-26T17:11:37.232Z,87.95
2023-01-26T17:14:39.818Z,88.96
2023-01-26T17:17:44.516Z,92.15
2023-01-26T17:20:47.490Z,92.26
2023-01-26T17:23:52.556Z,93.03
2023-01-26T17:26:55.413Z,93.01
2023-01-26T17:29:58.496Z,92.69
2023-01-26T17:33:01.985Z,92.44
2023-01-26T17:36:06.784Z,92.84
2023-01-26T17:39:10.949Z,92.50
2023-01-26T17:42:14.321Z,93.50
2023-01-26T17:45:17.468Z,93.67
2023-01-26T17:48:20.263Z,95.49
2023-01-26T17:51:23.272Z,97.44
2023-01-26T17:54:26.124Z,97.11
2023-01-26T17:57:29.059Z,95.70
2023-01-26T18:00:32.103Z,95.50
2023-01-26T18:03:39.608Z,94.66
2023-01-26T18:06:42.504Z,96.00
2023-01-26T18:09:45.900Z,96.54
2023-01-26T18:12:49.868Z,96.26
2023-01-26T18:15:54.848Z,99.41
2023-01-26T18:18:59.048Z,96.21
2023-01-26T18:22:02.040Z,97.46
2023-01-26T18:25:04.991Z,98.67
2023-01-26T18:28:08.385Z,99.05
2023-01-26T18:31:11.955Z,98.58
2023-01-26T18:34:15.725Z,97.52
2023-01-26T18:37:18.293Z,98.42
2023-01-26T18:40:21.623Z,96.90
2023-01-26T18:43:27.419Z,95.46
2023-01-26T18:46:33.341Z,95.68
2023-01-26T18:49:35.937Z,98.35
2023-01-26T18:52:39.453Z,97.20
2023-01-26T18:55:42.313Z,97.28
2023-01-26T18:58:45.495Z,96.80
2023-01-26T19:01:48.540Z,95.45
2023-01-26T19:04:53.609Z,95.38
2023-01-26T19:07:57.777Z,95.55
2023-01-26T19:11:08.263Z,96.18
2023-01-26T19:14:11.249Z,96.71
2023-01-26T19:17:14.460Z,97.57
2023-01-26T19:20:17.656Z,97.69
2023-01-26T19:23:20.841Z,96.74
2023-01-26T19:26:26.269Z,98.03
2023-01-26T19:29:29.411Z,99.01
2023-01-26T19:32:32.391Z,99.68
2023-01-26T19:35:39.163Z,99.48
2023-01-26T19:38:42.150Z,100.00
2023-01-26T19:41:46.323Z,100.00
2023-01-26T19:44:49.237Z,99.38
2023-01-26T19:47:52.525Z,99.73
2023-01-26T19:51:05.995Z,99.72
2023-01-26T19:54:09.423Z,100.00
2023-01-26T19:57:12.167Z,100.00
2023-01-26T20:00:17.081Z,99.88
2023-01-26T20:03:21.483Z,100.00
2023-01-26T20:06:26.388Z,100.00
2023-01-26T20:09:32.786Z,100.00
2023-01-26T20:12:36.876Z,100.00
2023-01-26T20:15:40.484Z,99.97
2023-01-26T20:18:43.413Z,100.00
2023-01-26T20:21:46.499Z,100.00
2023-01-26T20:24:49.600Z,100.00
2023-01-26T20:27:53.242Z,100.00
2023-01-26T20:31:03.580Z,100.00
2023-01-26T20:34:06.903Z,100.00
2023-01-26T20:37:10.393Z,100.00
2023-01-26T20:40:14.242Z,100.00
2023-01-26T20:43:19.612Z,100.00
2023-01-26T20:46:23.247Z,100.00
2023-01-26T20:49:25.997Z,100.00
2023-01-26T20:52:28.889Z,100.00
2023-01-26T20:55:31.611Z,100.00
2023-01-26T20:58:36.251Z,100.00
2023-01-26T21:01:38.896Z,100.00
2023-01-26T21:04:42.349Z,100.00
2023-01-26T21:07:45.067Z,100.00
2023-01-26T21:10:49.269Z,100.00
2023-01-26T21:13:52.648Z,100.00
2023-01-26T21:16:56.261Z,100.00
2023-01-26T21:19:59.039Z,100.00
2023-01-26T21:23:02.182Z,100.00
2023-01-26T21:26:07.416Z,100.00
2023-01-26T21:29:14.658Z,100.00
2023-01-26T21:32:17.377Z,100.00
2023-01-26T21:35:20.534Z,100.00
2023-01-26T21:38:23.640Z,100.00
2023-01-26T21:41:51.973Z,100.00
2023-01-26T21:45:14.775Z,100.00
2023-01-26T21:48:35.768Z,100.00
2023-01-26T21:51:58.175Z,100.00
2023-01-26T21:55:01.104Z,100.00
2023-01-26T21:58:23.906Z,100.00
2023-01-26T22:01:27.417Z,100.00
2023-01-26T22:04:30.958Z,100.00
2023-01-26T22:07:33.548Z,100.00
2023-01-26T22:10:36.434Z,100.00
2023-01-26T22:13:39.066Z,100.00
2023-01-26T22:16:42.578Z,100.00
2023-01-26T22:19:47.264Z,100.00
2023-01-26T22:22:50.323Z,100.00
2023-01-26T22:25:52.918Z,100.00
2023-01-26T22:28:57.813Z,100.00
2023-01-26T22:32:00.853Z,100.00
2023-01-26T22:35:04.478Z,100.00
2023-01-26T22:38:07.212Z,100.00
2023-01-26T22:41:15.754Z,100.00
2023-01-26T22:44:18.513Z,100.00
2023-01-26T22:47:21.480Z,100.00
2023-01-26T22:50:24.064Z,100.00
2023-01-26T22:53:28.701Z,100.00
2023-01-26T22:56:31.454Z,100.00
2023-01-26T22:59:34.344Z,100.00
2023-01-26T23:02:37.240Z,100.00
2023-01-26T23:05:40.137Z,100.00
2023-01-26T23:08:42.817Z,100.00
2023-01-26T23:11:45.638Z,100.00
2023-01-26T23:14:48.225Z,100.00
2023-01-26T23:17:52.442Z,100.00
2023-01-26T23:20:55.841Z,100.00
2023-01-26T23:23:58.953Z,100.00
2023-01-26T23:27:01.597Z,100.00
2023-01-26T23:30:05.057Z,100.00
2023-01-26T23:33:07.735Z,100.00
2023-01-26T23:36:13.732Z,100.00
2023-01-26T23:39:16.326Z,100.00
2023-01-26T23:42:19.602Z,100.00
2023-01-26T23:45:22.373Z,100.00
2023-01-26T23:48:25.759Z,100.00
2023-01-26T23:51:28.502Z,100.00
2023-01-26T23:54:31.345Z,100.00
2023-01-26T23:57:34.140Z,100.00
